sensor_id;sensor_type;location;lat;lon;timestamp;temperature;humidity
18898;DHT22;9581;49.484;8.556;2023-05-29T00:01:32;18.50;75.60
18898;DHT22;9581;49.484;8.556;2023-05-29T00:03:59;18.10;74.90
18898;DHT22;9581;49.484;8.556;2023-05-29T00:06:26;17.90;77.70
18898;DHT22;9581;49.484;8.556;2023-05-29T00:08:53;17.90;77.70
18898;DHT22;9581;49.484;8.556;2023-05-29T00:11:20;17.90;78.60
18898;DHT22;9581;49.484;8.556;2023-05-29T00:13:49;18.10;77.30
18898;DHT22;9581;49.484;8.556;2023-05-29T00:16:16;18.10;76.60
18898;DHT22;9581;49.484;8.556;2023-05-29T00:18:44;18.10;77.30
18898;DHT22;9581;49.484;8.556;2023-05-29T00:21:11;17.90;76.90
18898;DHT22;9581;49.484;8.556;2023-05-29T00:23:39;18.00;77.80
18898;DHT22;9581;49.484;8.556;2023-05-29T00:26:05;17.90;76.80
18898;DHT22;9581;49.484;8.556;2023-05-29T00:28:32;17.60;78.90
18898;DHT22;9581;49.484;8.556;2023-05-29T00:31:00;17.80;78.80
18898;DHT22;9581;49.484;8.556;2023-05-29T00:33:27;17.90;78.20
18898;DHT22;9581;49.484;8.556;2023-05-29T00:35:54;17.80;78.70
18898;DHT22;9581;49.484;8.556;2023-05-29T00:38:21;17.80;77.70
18898;DHT22;9581;49.484;8.556;2023-05-29T00:40:47;17.80;77.90
18898;DHT22;9581;49.484;8.556;2023-05-29T00:43:14;17.90;77.30
18898;DHT22;9581;49.484;8.556;2023-05-29T00:45:41;17.70;78.50
18898;DHT22;9581;49.484;8.556;2023-05-29T00:48:09;17.80;78.80
18898;DHT22;9581;49.484;8.556;2023-05-29T00:50:36;17.60;77.10
18898;DHT22;9581;49.484;8.556;2023-05-29T00:53:03;17.50;80.00
18898;DHT22;9581;49.484;8.556;2023-05-29T00:55:31;17.40;80.10
18898;DHT22;9581;49.484;8.556;2023-05-29T00:57:58;17.40;80.80
18898;DHT22;9581;49.484;8.556;2023-05-29T01:00:25;17.50;79.30
18898;DHT22;9581;49.484;8.556;2023-05-29T01:02:52;17.40;82.40
18898;DHT22;9581;49.484;8.556;2023-05-29T01:05:21;17.50;79.80
18898;DHT22;9581;49.484;8.556;2023-05-29T01:07:47;17.40;80.20
18898;DHT22;9581;49.484;8.556;2023-05-29T01:10:16;17.20;81.60
18898;DHT22;9581;49.484;8.556;2023-05-29T01:12:47;17.10;81.70
18898;DHT22;9581;49.484;8.556;2023-05-29T01:15:24;17.10;82.90
18898;DHT22;9581;49.484;8.556;2023-05-29T01:18:07;17.30;82.00
18898;DHT22;9581;49.484;8.556;2023-05-29T01:20:40;17.50;81.60
18898;DHT22;9581;49.484;8.556;2023-05-29T01:26:23;17.50;80.20
18898;DHT22;9581;49.484;8.556;2023-05-29T01:28:56;17.60;80.00
18898;DHT22;9581;49.484;8.556;2023-05-29T01:31:26;17.60;78.40
18898;DHT22;9581;49.484;8.556;2023-05-29T01:33:53;17.60;79.00
18898;DHT22;9581;49.484;8.556;2023-05-29T01:36:20;17.80;77.40
18898;DHT22;9581;49.484;8.556;2023-05-29T01:38:48;17.70;77.30
18898;DHT22;9581;49.484;8.556;2023-05-29T01:41:15;17.60;77.40
18898;DHT22;9581;49.484;8.556;2023-05-29T01:43:43;17.60;78.40
18898;DHT22;9581;49.484;8.556;2023-05-29T01:46:13;17.70;76.40
18898;DHT22;9581;49.484;8.556;2023-05-29T01:48:40;17.40;78.10
18898;DHT22;9581;49.484;8.556;2023-05-29T01:51:08;17.60;78.40
18898;DHT22;9581;49.484;8.556;2023-05-29T01:53:36;17.60;78.30
18898;DHT22;9581;49.484;8.556;2023-05-29T01:56:04;17.60;77.90
18898;DHT22;9581;49.484;8.556;2023-05-29T01:58:32;17.60;78.60
18898;DHT22;9581;49.484;8.556;2023-05-29T02:01:00;17.70;78.00
18898;DHT22;9581;49.484;8.556;2023-05-29T02:03:28;17.60;77.80
18898;DHT22;9581;49.484;8.556;2023-05-29T02:05:57;17.50;78.30
18898;DHT22;9581;49.484;8.556;2023-05-29T02:08:24;17.50;78.70
18898;DHT22;9581;49.484;8.556;2023-05-29T02:10:51;17.60;79.20
18898;DHT22;9581;49.484;8.556;2023-05-29T02:13:18;17.60;79.70
18898;DHT22;9581;49.484;8.556;2023-05-29T02:15:45;17.60;79.80
18898;DHT22;9581;49.484;8.556;2023-05-29T02:18:14;17.40;80.20
18898;DHT22;9581;49.484;8.556;2023-05-29T02:20:44;17.40;81.20
18898;DHT22;9581;49.484;8.556;2023-05-29T02:23:11;17.30;80.70
18898;DHT22;9581;49.484;8.556;2023-05-29T02:25:38;17.30;81.00
18898;DHT22;9581;49.484;8.556;2023-05-29T02:28:05;16.70;81.80
18898;DHT22;9581;49.484;8.556;2023-05-29T02:30:32;16.40;82.40
18898;DHT22;9581;49.484;8.556;2023-05-29T02:32:59;15.90;84.00
18898;DHT22;9581;49.484;8.556;2023-05-29T02:35:27;16.10;85.70
18898;DHT22;9581;49.484;8.556;2023-05-29T02:37:55;16.40;85.40
18898;DHT22;9581;49.484;8.556;2023-05-29T02:40:22;16.30;85.10
18898;DHT22;9581;49.484;8.556;2023-05-29T02:42:49;16.30;85.90
18898;DHT22;9581;49.484;8.556;2023-05-29T02:45:17;16.50;85.10
18898;DHT22;9581;49.484;8.556;2023-05-29T02:47:43;16.60;84.90
18898;DHT22;9581;49.484;8.556;2023-05-29T02:50:10;16.70;84.20
18898;DHT22;9581;49.484;8.556;2023-05-29T02:52:40;16.70;84.60
18898;DHT22;9581;49.484;8.556;2023-05-29T02:55:08;16.70;84.20
18898;DHT22;9581;49.484;8.556;2023-05-29T02:57:35;16.70;84.20
18898;DHT22;9581;49.484;8.556;2023-05-29T03:00:02;16.70;84.20
18898;DHT22;9581;49.484;8.556;2023-05-29T03:02:31;16.70;84.20
18898;DHT22;9581;49.484;8.556;2023-05-29T03:04:58;16.30;84.20
18898;DHT22;9581;49.484;8.556;2023-05-29T03:07:26;16.20;85.80
18898;DHT22;9581;49.484;8.556;2023-05-29T03:09:53;16.40;85.60
18898;DHT22;9581;49.484;8.556;2023-05-29T03:12:21;16.40;85.00
18898;DHT22;9581;49.484;8.556;2023-05-29T03:14:47;16.50;85.30
18898;DHT22;9581;49.484;8.556;2023-05-29T03:17:14;16.50;85.40
18898;DHT22;9581;49.484;8.556;2023-05-29T03:19:41;16.40;85.50
18898;DHT22;9581;49.484;8.556;2023-05-29T03:22:08;16.40;85.90
18898;DHT22;9581;49.484;8.556;2023-05-29T03:24:35;16.30;86.00
18898;DHT22;9581;49.484;8.556;2023-05-29T03:27:01;16.40;85.50
18898;DHT22;9581;49.484;8.556;2023-05-29T03:29:32;16.50;85.00
18898;DHT22;9581;49.484;8.556;2023-05-29T03:31:58;16.50;85.40
18898;DHT22;9581;49.484;8.556;2023-05-29T03:34:25;16.50;84.60
18898;DHT22;9581;49.484;8.556;2023-05-29T03:36:53;16.40;85.30
18898;DHT22;9581;49.484;8.556;2023-05-29T03:39:20;16.30;85.10
18898;DHT22;9581;49.484;8.556;2023-05-29T03:41:46;16.30;85.10
18898;DHT22;9581;49.484;8.556;2023-05-29T03:44:13;16.40;85.00
18898;DHT22;9581;49.484;8.556;2023-05-29T03:46:41;16.50;84.90
18898;DHT22;9581;49.484;8.556;2023-05-29T03:49:08;16.60;84.70
18898;DHT22;9581;49.484;8.556;2023-05-29T03:51:35;16.50;85.10
18898;DHT22;9581;49.484;8.556;2023-05-29T03:54:02;16.30;85.20
18898;DHT22;9581;49.484;8.556;2023-05-29T03:56:29;16.30;85.20
18898;DHT22;9581;49.484;8.556;2023-05-29T03:58:56;16.20;85.30
18898;DHT22;9581;49.484;8.556;2023-05-29T04:01:23;16.20;85.60
18898;DHT22;9581;49.484;8.556;2023-05-29T04:03:51;16.20;85.60
18898;DHT22;9581;49.484;8.556;2023-05-29T04:06:18;16.30;86.00
18898;DHT22;9581;49.484;8.556;2023-05-29T04:08:45;16.40;85.40
18898;DHT22;9581;49.484;8.556;2023-05-29T04:11:12;16.40;85.40
18898;DHT22;9581;49.484;8.556;2023-05-29T04:13:39;16.30;85.30
18898;DHT22;9581;49.484;8.556;2023-05-29T04:16:06;16.30;85.30
18898;DHT22;9581;49.484;8.556;2023-05-29T04:18:33;16.40;85.80
18898;DHT22;9581;49.484;8.556;2023-05-29T04:21:01;16.30;86.60
18898;DHT22;9581;49.484;8.556;2023-05-29T04:23:28;16.00;87.50
18898;DHT22;9581;49.484;8.556;2023-05-29T04:25:55;16.10;88.20
18898;DHT22;9581;49.484;8.556;2023-05-29T04:28:21;16.10;88.60
18898;DHT22;9581;49.484;8.556;2023-05-29T04:30:49;16.30;87.80
18898;DHT22;9581;49.484;8.556;2023-05-29T04:33:17;16.40;87.90
18898;DHT22;9581;49.484;8.556;2023-05-29T04:35:46;16.50;87.80
18898;DHT22;9581;49.484;8.556;2023-05-29T04:38:15;16.50;88.30
18898;DHT22;9581;49.484;8.556;2023-05-29T04:40:42;16.70;87.50
18898;DHT22;9581;49.484;8.556;2023-05-29T04:43:10;16.60;87.10
18898;DHT22;9581;49.484;8.556;2023-05-29T04:45:36;16.50;88.20
18898;DHT22;9581;49.484;8.556;2023-05-29T04:48:03;16.40;89.40
18898;DHT22;9581;49.484;8.556;2023-05-29T04:50:30;16.40;90.20
18898;DHT22;9581;49.484;8.556;2023-05-29T04:52:57;16.60;90.10
18898;DHT22;9581;49.484;8.556;2023-05-29T04:55:25;16.50;89.30
18898;DHT22;9581;49.484;8.556;2023-05-29T04:57:52;16.50;90.00
18898;DHT22;9581;49.484;8.556;2023-05-29T05:00:20;16.60;89.80
18898;DHT22;9581;49.484;8.556;2023-05-29T05:02:47;16.50;90.10
18898;DHT22;9581;49.484;8.556;2023-05-29T05:05:14;16.60;90.30
18898;DHT22;9581;49.484;8.556;2023-05-29T05:07:40;16.70;90.80
18898;DHT22;9581;49.484;8.556;2023-05-29T05:10:08;16.70;90.70
18898;DHT22;9581;49.484;8.556;2023-05-29T05:12:36;16.80;90.70
18898;DHT22;9581;49.484;8.556;2023-05-29T05:15:04;16.90;90.80
18898;DHT22;9581;49.484;8.556;2023-05-29T05:17:31;16.70;90.50
18898;DHT22;9581;49.484;8.556;2023-05-29T05:19:57;16.70;90.50
18898;DHT22;9581;49.484;8.556;2023-05-29T05:22:24;16.80;90.80
18898;DHT22;9581;49.484;8.556;2023-05-29T05:24:51;17.00;90.80
18898;DHT22;9581;49.484;8.556;2023-05-29T05:27:19;17.10;90.80
18898;DHT22;9581;49.484;8.556;2023-05-29T05:29:48;17.10;90.50
18898;DHT22;9581;49.484;8.556;2023-05-29T05:32:14;17.10;90.30
18898;DHT22;9581;49.484;8.556;2023-05-29T05:34:42;17.00;90.30
18898;DHT22;9581;49.484;8.556;2023-05-29T05:37:09;17.10;90.50
18898;DHT22;9581;49.484;8.556;2023-05-29T05:39:36;17.20;90.30
18898;DHT22;9581;49.484;8.556;2023-05-29T05:42:03;17.20;90.70
18898;DHT22;9581;49.484;8.556;2023-05-29T05:44:30;17.30;91.00
18898;DHT22;9581;49.484;8.556;2023-05-29T05:46:58;17.40;90.70
18898;DHT22;9581;49.484;8.556;2023-05-29T05:49:25;17.40;90.90
18898;DHT22;9581;49.484;8.556;2023-05-29T05:51:52;17.40;90.70
18898;DHT22;9581;49.484;8.556;2023-05-29T05:54:18;17.40;90.80
18898;DHT22;9581;49.484;8.556;2023-05-29T05:56:45;17.50;90.70
18898;DHT22;9581;49.484;8.556;2023-05-29T05:59:12;17.50;90.60
18898;DHT22;9581;49.484;8.556;2023-05-29T06:01:39;17.60;90.80
18898;DHT22;9581;49.484;8.556;2023-05-29T06:04:08;17.60;90.50
18898;DHT22;9581;49.484;8.556;2023-05-29T06:06:35;17.70;90.00
18898;DHT22;9581;49.484;8.556;2023-05-29T06:09:01;17.70;90.10
18898;DHT22;9581;49.484;8.556;2023-05-29T06:11:29;17.90;90.10
18898;DHT22;9581;49.484;8.556;2023-05-29T06:13:57;17.80;90.30
18898;DHT22;9581;49.484;8.556;2023-05-29T06:16:24;17.80;90.10
18898;DHT22;9581;49.484;8.556;2023-05-29T06:18:50;17.90;89.80
18898;DHT22;9581;49.484;8.556;2023-05-29T06:21:20;17.90;89.10
18898;DHT22;9581;49.484;8.556;2023-05-29T06:23:47;18.00;88.70
18898;DHT22;9581;49.484;8.556;2023-05-29T06:26:14;18.10;89.80
18898;DHT22;9581;49.484;8.556;2023-05-29T06:28:41;18.20;89.10
18898;DHT22;9581;49.484;8.556;2023-05-29T06:31:08;18.30;89.30
18898;DHT22;9581;49.484;8.556;2023-05-29T06:33:35;18.30;88.10
18898;DHT22;9581;49.484;8.556;2023-05-29T06:36:02;18.20;88.20
18898;DHT22;9581;49.484;8.556;2023-05-29T06:38:30;18.50;88.50
18898;DHT22;9581;49.484;8.556;2023-05-29T06:40:57;18.60;88.20
18898;DHT22;9581;49.484;8.556;2023-05-29T06:43:25;18.60;87.30
18898;DHT22;9581;49.484;8.556;2023-05-29T06:45:52;18.60;88.10
18898;DHT22;9581;49.484;8.556;2023-05-29T06:48:18;18.70;87.10
18898;DHT22;9581;49.484;8.556;2023-05-29T06:50:46;18.80;87.50
18898;DHT22;9581;49.484;8.556;2023-05-29T06:53:13;18.90;87.90
18898;DHT22;9581;49.484;8.556;2023-05-29T06:55:42;19.00;87.40
18898;DHT22;9581;49.484;8.556;2023-05-29T06:58:08;19.30;88.30
18898;DHT22;9581;49.484;8.556;2023-05-29T07:00:35;19.40;87.60
18898;DHT22;9581;49.484;8.556;2023-05-29T07:03:02;19.40;87.20
18898;DHT22;9581;49.484;8.556;2023-05-29T07:05:29;19.40;87.60
18898;DHT22;9581;49.484;8.556;2023-05-29T07:07:56;19.50;87.20
18898;DHT22;9581;49.484;8.556;2023-05-29T07:10:23;19.70;87.40
18898;DHT22;9581;49.484;8.556;2023-05-29T07:12:51;19.90;88.70
18898;DHT22;9581;49.484;8.556;2023-05-29T07:15:18;19.90;86.50
18898;DHT22;9581;49.484;8.556;2023-05-29T07:17:45;19.80;84.60
18898;DHT22;9581;49.484;8.556;2023-05-29T07:20:12;19.90;85.10
18898;DHT22;9581;49.484;8.556;2023-05-29T07:22:40;20.00;84.40
18898;DHT22;9581;49.484;8.556;2023-05-29T07:25:07;20.10;84.80
18898;DHT22;9581;49.484;8.556;2023-05-29T07:27:34;20.20;83.80
18898;DHT22;9581;49.484;8.556;2023-05-29T07:30:03;20.20;83.00
18898;DHT22;9581;49.484;8.556;2023-05-29T07:32:31;20.40;81.80
18898;DHT22;9581;49.484;8.556;2023-05-29T07:34:58;20.50;83.70
18898;DHT22;9581;49.484;8.556;2023-05-29T07:37:25;20.60;83.40
18898;DHT22;9581;49.484;8.556;2023-05-29T07:39:51;20.70;84.10
18898;DHT22;9581;49.484;8.556;2023-05-29T07:42:18;20.80;84.20
18898;DHT22;9581;49.484;8.556;2023-05-29T07:44:45;20.90;82.80
18898;DHT22;9581;49.484;8.556;2023-05-29T07:47:14;21.10;84.20
18898;DHT22;9581;49.484;8.556;2023-05-29T07:49:42;21.20;81.80
18898;DHT22;9581;49.484;8.556;2023-05-29T07:52:09;21.30;81.10
18898;DHT22;9581;49.484;8.556;2023-05-29T07:54:36;21.30;81.10
18898;DHT22;9581;49.484;8.556;2023-05-29T07:57:03;21.40;81.50
18898;DHT22;9581;49.484;8.556;2023-05-29T07:59:34;21.60;81.00
18898;DHT22;9581;49.484;8.556;2023-05-29T08:02:01;21.70;81.60
18898;DHT22;9581;49.484;8.556;2023-05-29T08:04:30;21.80;82.50
18898;DHT22;9581;49.484;8.556;2023-05-29T08:06:57;21.90;81.30
18898;DHT22;9581;49.484;8.556;2023-05-29T08:09:24;22.00;81.10
18898;DHT22;9581;49.484;8.556;2023-05-29T08:11:51;22.10;82.60
18898;DHT22;9581;49.484;8.556;2023-05-29T08:14:18;22.20;81.70
18898;DHT22;9581;49.484;8.556;2023-05-29T08:16:45;22.30;81.70
18898;DHT22;9581;49.484;8.556;2023-05-29T08:19:12;22.30;80.50
18898;DHT22;9581;49.484;8.556;2023-05-29T08:21:40;22.40;80.40
18898;DHT22;9581;49.484;8.556;2023-05-29T08:24:07;22.40;79.60
18898;DHT22;9581;49.484;8.556;2023-05-29T08:26:34;22.50;78.10
18898;DHT22;9581;49.484;8.556;2023-05-29T08:29:01;22.60;78.80
18898;DHT22;9581;49.484;8.556;2023-05-29T08:31:30;22.70;79.80
18898;DHT22;9581;49.484;8.556;2023-05-29T08:33:57;22.80;80.10
18898;DHT22;9581;49.484;8.556;2023-05-29T08:36:24;22.80;77.70
18898;DHT22;9581;49.484;8.556;2023-05-29T08:38:53;22.90;78.40
18898;DHT22;9581;49.484;8.556;2023-05-29T08:41:23;23.00;78.30
18898;DHT22;9581;49.484;8.556;2023-05-29T08:43:52;23.10;78.10
18898;DHT22;9581;49.484;8.556;2023-05-29T08:46:19;23.20;77.80
18898;DHT22;9581;49.484;8.556;2023-05-29T08:48:48;23.20;77.60
18898;DHT22;9581;49.484;8.556;2023-05-29T08:51:18;23.20;77.30
18898;DHT22;9581;49.484;8.556;2023-05-29T08:53:46;23.40;78.60
18898;DHT22;9581;49.484;8.556;2023-05-29T08:56:14;23.50;77.60
18898;DHT22;9581;49.484;8.556;2023-05-29T08:58:41;23.60;78.20
18898;DHT22;9581;49.484;8.556;2023-05-29T09:01:09;23.60;76.20
18898;DHT22;9581;49.484;8.556;2023-05-29T09:03:36;23.60;76.20
18898;DHT22;9581;49.484;8.556;2023-05-29T09:06:04;23.70;76.00
18898;DHT22;9581;49.484;8.556;2023-05-29T09:08:32;23.80;75.60
18898;DHT22;9581;49.484;8.556;2023-05-29T09:11:00;23.70;73.40
18898;DHT22;9581;49.484;8.556;2023-05-29T09:13:28;23.70;70.90
18898;DHT22;9581;49.484;8.556;2023-05-29T09:15:58;23.70;72.10
18898;DHT22;9581;49.484;8.556;2023-05-29T09:18:29;24.00;76.90
18898;DHT22;9581;49.484;8.556;2023-05-29T09:20:56;24.20;75.20
18898;DHT22;9581;49.484;8.556;2023-05-29T09:23:24;24.30;74.90
18898;DHT22;9581;49.484;8.556;2023-05-29T09:25:53;24.40;74.40
18898;DHT22;9581;49.484;8.556;2023-05-29T09:28:21;24.50;74.30
18898;DHT22;9581;49.484;8.556;2023-05-29T09:30:50;24.70;72.00
18898;DHT22;9581;49.484;8.556;2023-05-29T09:33:17;24.80;69.80
18898;DHT22;9581;49.484;8.556;2023-05-29T09:35:45;24.90;70.30
18898;DHT22;9581;49.484;8.556;2023-05-29T09:38:13;25.00;72.30
18898;DHT22;9581;49.484;8.556;2023-05-29T09:40:40;25.10;69.20
18898;DHT22;9581;49.484;8.556;2023-05-29T09:43:10;25.30;69.50
18898;DHT22;9581;49.484;8.556;2023-05-29T09:45:38;25.40;70.40
18898;DHT22;9581;49.484;8.556;2023-05-29T09:48:08;25.60;70.50
18898;DHT22;9581;49.484;8.556;2023-05-29T09:50:35;25.70;69.20
18898;DHT22;9581;49.484;8.556;2023-05-29T09:53:01;25.70;67.30
18898;DHT22;9581;49.484;8.556;2023-05-29T09:55:31;25.80;68.50
18898;DHT22;9581;49.484;8.556;2023-05-29T09:57:59;26.10;65.30
18898;DHT22;9581;49.484;8.556;2023-05-29T10:00:28;26.00;68.10
18898;DHT22;9581;49.484;8.556;2023-05-29T10:02:56;26.20;66.90
18898;DHT22;9581;49.484;8.556;2023-05-29T10:05:24;26.00;67.30
18898;DHT22;9581;49.484;8.556;2023-05-29T10:07:53;26.10;66.30
18898;DHT22;9581;49.484;8.556;2023-05-29T10:10:21;26.10;66.40
18898;DHT22;9581;49.484;8.556;2023-05-29T10:12:53;26.30;67.50
18898;DHT22;9581;49.484;8.556;2023-05-29T10:15:23;26.30;63.80
18898;DHT22;9581;49.484;8.556;2023-05-29T10:17:59;26.40;63.80
18898;DHT22;9581;49.484;8.556;2023-05-29T10:20:28;26.40;65.60
18898;DHT22;9581;49.484;8.556;2023-05-29T10:22:57;26.50;64.60
18898;DHT22;9581;49.484;8.556;2023-05-29T10:25:27;26.50;67.10
18898;DHT22;9581;49.484;8.556;2023-05-29T10:27:56;26.50;66.60
18898;DHT22;9581;49.484;8.556;2023-05-29T10:30:30;26.50;63.10
18898;DHT22;9581;49.484;8.556;2023-05-29T10:33:08;26.60;65.70
18898;DHT22;9581;49.484;8.556;2023-05-29T10:35:42;26.50;64.30
18898;DHT22;9581;49.484;8.556;2023-05-29T10:38:12;26.50;65.90
18898;DHT22;9581;49.484;8.556;2023-05-29T10:40:42;26.60;64.70
18898;DHT22;9581;49.484;8.556;2023-05-29T10:43:30;26.80;65.50
18898;DHT22;9581;49.484;8.556;2023-05-29T10:45:57;26.80;64.90
18898;DHT22;9581;49.484;8.556;2023-05-29T10:48:41;26.90;64.00
18898;DHT22;9581;49.484;8.556;2023-05-29T10:51:27;27.00;63.90
18898;DHT22;9581;49.484;8.556;2023-05-29T10:53:54;26.90;63.80
18898;DHT22;9581;49.484;8.556;2023-05-29T10:56:23;27.00;66.20
18898;DHT22;9581;49.484;8.556;2023-05-29T10:58:56;26.90;64.70
18898;DHT22;9581;49.484;8.556;2023-05-29T11:01:24;27.00;65.00
18898;DHT22;9581;49.484;8.556;2023-05-29T11:03:51;27.00;65.10
18898;DHT22;9581;49.484;8.556;2023-05-29T11:06:21;26.90;63.70
18898;DHT22;9581;49.484;8.556;2023-05-29T11:08:54;26.90;64.50
18898;DHT22;9581;49.484;8.556;2023-05-29T11:11:31;27.00;64.30
18898;DHT22;9581;49.484;8.556;2023-05-29T11:14:02;27.00;63.20
18898;DHT22;9581;49.484;8.556;2023-05-29T11:16:36;26.90;63.00
18898;DHT22;9581;49.484;8.556;2023-05-29T11:19:07;27.00;64.70
18898;DHT22;9581;49.484;8.556;2023-05-29T11:21:49;27.00;60.80
18898;DHT22;9581;49.484;8.556;2023-05-29T11:24:22;27.10;62.00
18898;DHT22;9581;49.484;8.556;2023-05-29T11:26:51;27.00;65.40
18898;DHT22;9581;49.484;8.556;2023-05-29T11:29:21;27.20;64.70
18898;DHT22;9581;49.484;8.556;2023-05-29T11:31:55;27.30;64.30
18898;DHT22;9581;49.484;8.556;2023-05-29T11:34:27;27.30;63.00
18898;DHT22;9581;49.484;8.556;2023-05-29T11:36:56;27.30;63.70
18898;DHT22;9581;49.484;8.556;2023-05-29T11:39:23;27.30;62.40
18898;DHT22;9581;49.484;8.556;2023-05-29T11:41:50;27.40;63.70
18898;DHT22;9581;49.484;8.556;2023-05-29T11:44:18;27.50;62.80
18898;DHT22;9581;49.484;8.556;2023-05-29T11:46:45;27.60;64.30
18898;DHT22;9581;49.484;8.556;2023-05-29T11:49:12;27.60;62.40
18898;DHT22;9581;49.484;8.556;2023-05-29T11:51:42;27.60;62.50
18898;DHT22;9581;49.484;8.556;2023-05-29T11:54:12;27.60;62.90
18898;DHT22;9581;49.484;8.556;2023-05-29T11:56:38;27.70;63.80
18898;DHT22;9581;49.484;8.556;2023-05-29T11:59:11;27.80;62.20
18898;DHT22;9581;49.484;8.556;2023-05-29T12:01:37;27.80;61.70
18898;DHT22;9581;49.484;8.556;2023-05-29T12:04:14;27.90;61.30
18898;DHT22;9581;49.484;8.556;2023-05-29T12:06:40;27.70;60.80
18898;DHT22;9581;49.484;8.556;2023-05-29T12:09:07;27.70;61.90
18898;DHT22;9581;49.484;8.556;2023-05-29T12:11:36;27.60;61.70
18898;DHT22;9581;49.484;8.556;2023-05-29T12:14:03;27.70;60.70
18898;DHT22;9581;49.484;8.556;2023-05-29T12:16:31;28.00;62.10
18898;DHT22;9581;49.484;8.556;2023-05-29T12:18:59;28.00;62.00
18898;DHT22;9581;49.484;8.556;2023-05-29T12:21:27;28.10;61.10
18898;DHT22;9581;49.484;8.556;2023-05-29T12:23:54;28.10;60.60
18898;DHT22;9581;49.484;8.556;2023-05-29T12:26:22;28.20;61.10
18898;DHT22;9581;49.484;8.556;2023-05-29T12:28:51;28.10;60.80
18898;DHT22;9581;49.484;8.556;2023-05-29T12:31:26;28.10;61.10
18898;DHT22;9581;49.484;8.556;2023-05-29T12:33:59;28.20;60.30
18898;DHT22;9581;49.484;8.556;2023-05-29T12:36:26;28.20;60.90
18898;DHT22;9581;49.484;8.556;2023-05-29T12:38:53;28.20;59.30
18898;DHT22;9581;49.484;8.556;2023-05-29T12:41:26;28.10;60.20
18898;DHT22;9581;49.484;8.556;2023-05-29T12:43:55;28.10;59.30
18898;DHT22;9581;49.484;8.556;2023-05-29T12:46:23;28.40;59.60
18898;DHT22;9581;49.484;8.556;2023-05-29T12:48:52;28.50;58.80
18898;DHT22;9581;49.484;8.556;2023-05-29T12:51:23;28.40;58.70
18898;DHT22;9581;49.484;8.556;2023-05-29T12:53:50;28.40;58.60
18898;DHT22;9581;49.484;8.556;2023-05-29T12:56:20;28.50;58.70
18898;DHT22;9581;49.484;8.556;2023-05-29T12:58:48;28.50;59.60
18898;DHT22;9581;49.484;8.556;2023-05-29T13:01:16;28.60;59.80
18898;DHT22;9581;49.484;8.556;2023-05-29T13:03:42;28.50;58.10
18898;DHT22;9581;49.484;8.556;2023-05-29T13:06:10;28.40;57.10
18898;DHT22;9581;49.484;8.556;2023-05-29T13:08:37;28.50;59.70
18898;DHT22;9581;49.484;8.556;2023-05-29T13:11:04;28.70;57.70
18898;DHT22;9581;49.484;8.556;2023-05-29T13:13:31;28.70;57.80
18898;DHT22;9581;49.484;8.556;2023-05-29T13:15:57;28.60;56.50
18898;DHT22;9581;49.484;8.556;2023-05-29T13:18:25;28.60;56.50
18898;DHT22;9581;49.484;8.556;2023-05-29T13:20:52;28.70;56.90
18898;DHT22;9581;49.484;8.556;2023-05-29T13:23:20;28.70;57.70
18898;DHT22;9581;49.484;8.556;2023-05-29T13:25:47;28.80;58.60
18898;DHT22;9581;49.484;8.556;2023-05-29T13:28:15;28.70;56.50
18898;DHT22;9581;49.484;8.556;2023-05-29T13:30:41;29.00;57.70
18898;DHT22;9581;49.484;8.556;2023-05-29T13:33:08;29.00;56.40
18898;DHT22;9581;49.484;8.556;2023-05-29T13:35:37;28.90;57.10
18898;DHT22;9581;49.484;8.556;2023-05-29T13:38:03;28.90;57.40
18898;DHT22;9581;49.484;8.556;2023-05-29T13:40:30;28.90;57.80
18898;DHT22;9581;49.484;8.556;2023-05-29T13:42:58;29.10;58.20
18898;DHT22;9581;49.484;8.556;2023-05-29T13:45:24;29.30;56.50
18898;DHT22;9581;49.484;8.556;2023-05-29T13:47:53;29.30;57.60
18898;DHT22;9581;49.484;8.556;2023-05-29T13:50:20;29.30;57.30
18898;DHT22;9581;49.484;8.556;2023-05-29T13:52:50;29.30;57.90
18898;DHT22;9581;49.484;8.556;2023-05-29T13:55:17;29.30;56.90
18898;DHT22;9581;49.484;8.556;2023-05-29T13:57:44;29.20;56.90
18898;DHT22;9581;49.484;8.556;2023-05-29T14:00:11;29.30;56.10
18898;DHT22;9581;49.484;8.556;2023-05-29T14:02:38;29.30;56.50
18898;DHT22;9581;49.484;8.556;2023-05-29T14:05:06;29.40;55.90
18898;DHT22;9581;49.484;8.556;2023-05-29T14:07:33;29.40;56.60
18898;DHT22;9581;49.484;8.556;2023-05-29T14:10:01;29.30;56.90
18898;DHT22;9581;49.484;8.556;2023-05-29T14:12:28;29.30;55.80
18898;DHT22;9581;49.484;8.556;2023-05-29T14:14:55;29.40;55.80
18898;DHT22;9581;49.484;8.556;2023-05-29T14:17:22;29.50;55.80
18898;DHT22;9581;49.484;8.556;2023-05-29T14:19:48;29.70;55.70
18898;DHT22;9581;49.484;8.556;2023-05-29T14:22:15;30.00;54.70
18898;DHT22;9581;49.484;8.556;2023-05-29T14:24:42;30.10;53.30
18898;DHT22;9581;49.484;8.556;2023-05-29T14:27:11;30.30;54.40
18898;DHT22;9581;49.484;8.556;2023-05-29T14:29:37;31.10;55.20
18898;DHT22;9581;49.484;8.556;2023-05-29T14:32:05;33.30;53.50
18898;DHT22;9581;49.484;8.556;2023-05-29T14:34:32;36.60;50.40
18898;DHT22;9581;49.484;8.556;2023-05-29T14:36:58;40.10;44.00
18898;DHT22;9581;49.484;8.556;2023-05-29T14:39:25;43.80;41.50
18898;DHT22;9581;49.484;8.556;2023-05-29T14:41:52;45.60;37.60
18898;DHT22;9581;49.484;8.556;2023-05-29T14:44:20;46.60;35.60
18898;DHT22;9581;49.484;8.556;2023-05-29T14:46:47;48.00;33.20
18898;DHT22;9581;49.484;8.556;2023-05-29T14:49:14;47.80;32.50
18898;DHT22;9581;49.484;8.556;2023-05-29T14:51:40;47.70;33.80
18898;DHT22;9581;49.484;8.556;2023-05-29T14:54:08;48.00;32.10
18898;DHT22;9581;49.484;8.556;2023-05-29T14:56:35;48.00;31.60
18898;DHT22;9581;49.484;8.556;2023-05-29T14:59:01;47.60;31.30
18898;DHT22;9581;49.484;8.556;2023-05-29T15:01:30;46.40;31.30
18898;DHT22;9581;49.484;8.556;2023-05-29T15:03:56;46.40;32.40
18898;DHT22;9581;49.484;8.556;2023-05-29T15:06:23;46.10;32.60
18898;DHT22;9581;49.484;8.556;2023-05-29T15:08:50;46.10;32.20
18898;DHT22;9581;49.484;8.556;2023-05-29T15:11:17;45.50;32.50
18898;DHT22;9581;49.484;8.556;2023-05-29T15:13:45;45.60;31.90
18898;DHT22;9581;49.484;8.556;2023-05-29T15:16:12;45.70;32.70
18898;DHT22;9581;49.484;8.556;2023-05-29T15:18:40;45.40;32.20
18898;DHT22;9581;49.484;8.556;2023-05-29T15:21:07;45.70;32.20
18898;DHT22;9581;49.484;8.556;2023-05-29T15:23:34;45.60;32.10
18898;DHT22;9581;49.484;8.556;2023-05-29T15:26:01;44.90;31.40
18898;DHT22;9581;49.484;8.556;2023-05-29T15:28:28;45.10;32.10
18898;DHT22;9581;49.484;8.556;2023-05-29T15:30:55;44.70;32.50
18898;DHT22;9581;49.484;8.556;2023-05-29T15:33:22;44.10;32.70
18898;DHT22;9581;49.484;8.556;2023-05-29T15:35:50;43.80;32.70
18898;DHT22;9581;49.484;8.556;2023-05-29T15:38:17;44.40;32.80
18898;DHT22;9581;49.484;8.556;2023-05-29T15:40:44;44.70;33.60
18898;DHT22;9581;49.484;8.556;2023-05-29T15:43:11;44.50;33.30
18898;DHT22;9581;49.484;8.556;2023-05-29T15:45:38;44.50;34.00
18898;DHT22;9581;49.484;8.556;2023-05-29T15:48:06;44.30;33.70
18898;DHT22;9581;49.484;8.556;2023-05-29T15:50:33;44.00;33.30
18898;DHT22;9581;49.484;8.556;2023-05-29T15:53:01;44.10;32.50